sensor_id;sensor_type;location;lat;lon;timestamp;temperature;humidity
66337;SHT30;53139;45.576;5.304;2023-04-24T00:02:26;10.81;93.31
66337;SHT30;53139;45.576;5.304;2023-04-24T00:05:39;10.79;93.08
66337;SHT30;53139;45.576;5.304;2023-04-24T00:08:43;10.82;92.27
66337;SHT30;53139;45.576;5.304;2023-04-24T00:11:55;10.73;93.72
66337;SHT30;53139;45.576;5.304;2023-04-24T00:15:08;10.78;92.81
66337;SHT30;53139;45.576;5.304;2023-04-24T00:18:23;10.82;92.10
66337;SHT30;53139;45.576;5.304;2023-04-24T00:21:24;10.81;92.34
66337;SHT30;53139;45.576;5.304;2023-04-24T00:24:28;10.92;91.55
66337;SHT30;53139;45.576;5.304;2023-04-24T00:27:29;11.02;90.83
66337;SHT30;53139;45.576;5.304;2023-04-24T00:30:30;10.89;91.84
66337;SHT30;53139;45.576;5.304;2023-04-24T00:33:32;10.95;91.12
66337;SHT30;53139;45.576;5.304;2023-04-24T00:36:36;10.93;91.09
66337;SHT30;53139;45.576;5.304;2023-04-24T00:39:37;11.03;90.35
66337;SHT30;53139;45.576;5.304;2023-04-24T00:42:39;10.96;90.50
66337;SHT30;53139;45.576;5.304;2023-04-24T00:45:43;10.99;90.31
66337;SHT30;53139;45.576;5.304;2023-04-24T00:48:47;10.88;91.36
66337;SHT30;53139;45.576;5.304;2023-04-24T00:51:51;10.86;91.43
66337;SHT30;53139;45.576;5.304;2023-04-24T00:54:55;10.95;90.90
66337;SHT30;53139;45.576;5.304;2023-04-24T00:57:56;10.95;90.86
66337;SHT30;53139;45.576;5.304;2023-04-24T01:01:01;10.86;91.46
66337;SHT30;53139;45.576;5.304;2023-04-24T01:04:03;11.00;90.38
66337;SHT30;53139;45.576;5.304;2023-04-24T01:07:04;10.92;91.01
66337;SHT30;53139;45.576;5.304;2023-04-24T01:10:10;10.95;90.70
66337;SHT30;53139;45.576;5.304;2023-04-24T01:13:11;11.05;89.79
66337;SHT30;53139;45.576;5.304;2023-04-24T01:16:11;10.99;90.03
66337;SHT30;53139;45.576;5.304;2023-04-24T01:19:12;11.02;90.35
66337;SHT30;53139;45.576;5.304;2023-04-24T01:22:18;11.06;89.73
66337;SHT30;53139;45.576;5.304;2023-04-24T01:25:19;10.88;90.99
66337;SHT30;53139;45.576;5.304;2023-04-24T01:28:20;10.88;90.86
66337;SHT30;53139;45.576;5.304;2023-04-24T01:31:24;10.91;90.96
66337;SHT30;53139;45.576;5.304;2023-04-24T01:34:28;10.81;91.55
66337;SHT30;53139;45.576;5.304;2023-04-24T01:37:29;10.76;91.45
66337;SHT30;53139;45.576;5.304;2023-04-24T01:40:32;10.81;91.15
66337;SHT30;53139;45.576;5.304;2023-04-24T01:43:33;10.95;90.28
66337;SHT30;53139;45.576;5.304;2023-04-24T01:46:34;10.91;90.43
66337;SHT30;53139;45.576;5.304;2023-04-24T01:49:38;10.98;89.97
66337;SHT30;53139;45.576;5.304;2023-04-24T01:52:38;11.05;89.55
66337;SHT30;53139;45.576;5.304;2023-04-24T01:55:40;11.13;88.89
66337;SHT30;53139;45.576;5.304;2023-04-24T01:58:41;11.07;89.25
66337;SHT30;53139;45.576;5.304;2023-04-24T02:01:42;11.12;88.78
66337;SHT30;53139;45.576;5.304;2023-04-24T02:04:42;11.02;89.45
66337;SHT30;53139;45.576;5.304;2023-04-24T02:07:43;11.17;88.24
66337;SHT30;53139;45.576;5.304;2023-04-24T02:10:43;11.16;88.03
66337;SHT30;53139;45.576;5.304;2023-04-24T02:13:44;10.99;89.77
66337;SHT30;53139;45.576;5.304;2023-04-24T02:16:45;11.00;89.63
66337;SHT30;53139;45.576;5.304;2023-04-24T02:19:45;11.26;87.22
66337;SHT30;53139;45.576;5.304;2023-04-24T02:22:46;11.30;86.81
66337;SHT30;53139;45.576;5.304;2023-04-24T02:25:47;11.23;87.23
66337;SHT30;53139;45.576;5.304;2023-04-24T02:28:47;11.23;87.18
66337;SHT30;53139;45.576;5.304;2023-04-24T02:31:48;11.12;87.82
66337;SHT30;53139;45.576;5.304;2023-04-24T02:34:49;11.12;87.71
66337;SHT30;53139;45.576;5.304;2023-04-24T02:37:50;11.22;87.05
66337;SHT30;53139;45.576;5.304;2023-04-24T02:40:50;11.06;88.07
66337;SHT30;53139;45.576;5.304;2023-04-24T02:43:51;11.00;88.54
66337;SHT30;53139;45.576;5.304;2023-04-24T02:46:52;11.00;88.28
66337;SHT30;53139;45.576;5.304;2023-04-24T02:49:52;10.91;88.91
66337;SHT30;53139;45.576;5.304;2023-04-24T02:52:53;10.86;89.09
66337;SHT30;53139;45.576;5.304;2023-04-24T02:55:53;10.98;88.42
66337;SHT30;53139;45.576;5.304;2023-04-24T02:58:54;10.95;88.84
66337;SHT30;53139;45.576;5.304;2023-04-24T03:01:54;10.95;88.51
66337;SHT30;53139;45.576;5.304;2023-04-24T03:04:55;11.00;88.20
66337;SHT30;53139;45.576;5.304;2023-04-24T03:07:57;10.96;88.41
66337;SHT30;53139;45.576;5.304;2023-04-24T03:10:58;10.95;88.42
66337;SHT30;53139;45.576;5.304;2023-04-24T03:13:58;10.91;88.56
66337;SHT30;53139;45.576;5.304;2023-04-24T03:16:59;10.81;88.76
66337;SHT30;53139;45.576;5.304;2023-04-24T03:20:00;10.69;89.02
66337;SHT30;53139;45.576;5.304;2023-04-24T03:23:00;10.64;89.62
66337;SHT30;53139;45.576;5.304;2023-04-24T03:26:01;10.71;89.37
66337;SHT30;53139;45.576;5.304;2023-04-24T03:29:02;10.67;89.15
66337;SHT30;53139;45.576;5.304;2023-04-24T03:32:03;10.95;87.82
66337;SHT30;53139;45.576;5.304;2023-04-24T03:35:10;10.89;88.23
66337;SHT30;53139;45.576;5.304;2023-04-24T03:38:17;10.89;88.80
66337;SHT30;53139;45.576;5.304;2023-04-24T03:41:25;10.76;89.58
66337;SHT30;53139;45.576;5.304;2023-04-24T03:44:41;10.91;88.53
66337;SHT30;53139;45.576;5.304;2023-04-24T03:48:09;10.69;90.39
66337;SHT30;53139;45.576;5.304;2023-04-24T03:51:36;10.51;93.19
66337;SHT30;53139;45.576;5.304;2023-04-24T03:54:56;10.44;93.24
66337;SHT30;53139;45.576;5.304;2023-04-24T03:58:03;10.38;94.71
66337;SHT30;53139;45.576;5.304;2023-04-24T04:01:17;10.29;94.84
66337;SHT30;53139;45.576;5.304;2023-04-24T04:04:19;10.24;95.26
66337;SHT30;53139;45.576;5.304;2023-04-24T04:07:24;10.26;96.72
66337;SHT30;53139;45.576;5.304;2023-04-24T04:10:31;10.16;96.96
66337;SHT30;53139;45.576;5.304;2023-04-24T04:13:43;10.10;97.55
66337;SHT30;53139;45.576;5.304;2023-04-24T04:17:01;10.10;97.65
66337;SHT30;53139;45.576;5.304;2023-04-24T04:20:19;10.13;97.99
66337;SHT30;53139;45.576;5.304;2023-04-24T04:23:41;10.07;98.12
66337;SHT30;53139;45.576;5.304;2023-04-24T04:27:33;10.10;97.81
66337;SHT30;53139;45.576;5.304;2023-04-24T04:31:35;10.06;99.05
66337;SHT30;53139;45.576;5.304;2023-04-24T04:39:55;10.05;99.78
66337;SHT30;53139;45.576;5.304;2023-04-24T04:43:55;9.95;99.61
66337;SHT30;53139;45.576;5.304;2023-04-24T04:47:54;9.93;99.67
66337;SHT30;53139;45.576;5.304;2023-04-24T04:51:52;9.93;99.97
66337;SHT30;53139;45.576;5.304;2023-04-24T04:55:46;9.95;99.29
66337;SHT30;53139;45.576;5.304;2023-04-24T04:59:10;10.05;99.17
66337;SHT30;53139;45.576;5.304;2023-04-24T05:10:55;10.06;99.09
66337;SHT30;53139;45.576;5.304;2023-04-24T05:15:20;10.13;98.76
66337;SHT30;53139;45.576;5.304;2023-04-24T05:22:57;10.20;99.43
66337;SHT30;53139;45.576;5.304;2023-04-24T05:25:58;10.21;99.03
66337;SHT30;53139;45.576;5.304;2023-04-24T05:28:58;10.20;98.66
66337;SHT30;53139;45.576;5.304;2023-04-24T05:31:59;10.16;98.42
66337;SHT30;53139;45.576;5.304;2023-04-24T05:35:01;10.26;98.46
66337;SHT30;53139;45.576;5.304;2023-04-24T05:38:01;10.21;98.18
66337;SHT30;53139;45.576;5.304;2023-04-24T05:41:02;10.21;98.57
66337;SHT30;53139;45.576;5.304;2023-04-24T05:44:02;10.24;98.67
66337;SHT30;53139;45.576;5.304;2023-04-24T05:47:03;10.24;98.77
66337;SHT30;53139;45.576;5.304;2023-04-24T05:50:31;10.23;98.60
66337;SHT30;53139;45.576;5.304;2023-04-24T05:54:00;10.21;98.50
66337;SHT30;53139;45.576;5.304;2023-04-24T05:57:37;10.30;98.41
66337;SHT30;53139;45.576;5.304;2023-04-24T06:01:20;10.36;98.68
66337;SHT30;53139;45.576;5.304;2023-04-24T06:05:07;10.54;98.08
66337;SHT30;53139;45.576;5.304;2023-04-24T06:08:43;10.65;96.95
66337;SHT30;53139;45.576;5.304;2023-04-24T06:12:31;10.58;95.75
66337;SHT30;53139;45.576;5.304;2023-04-24T06:16:14;10.62;95.75
66337;SHT30;53139;45.576;5.304;2023-04-24T06:19:58;10.61;96.35
66337;SHT30;53139;45.576;5.304;2023-04-24T06:23:49;10.48;97.14
66337;SHT30;53139;45.576;5.304;2023-04-24T06:28:11;10.48;96.38
66337;SHT30;53139;45.576;5.304;2023-04-24T06:32:08;10.40;96.66
66337;SHT30;53139;45.576;5.304;2023-04-24T06:36:12;10.37;96.10
66337;SHT30;53139;45.576;5.304;2023-04-24T06:44:15;10.43;96.37
66337;SHT30;53139;45.576;5.304;2023-04-24T06:48:14;10.52;95.96
66337;SHT30;53139;45.576;5.304;2023-04-24T06:51:47;10.82;95.70
66337;SHT30;53139;45.576;5.304;2023-04-24T06:55:23;10.76;94.16
66337;SHT30;53139;45.576;5.304;2023-04-24T06:58:42;10.83;95.58
66337;SHT30;53139;45.576;5.304;2023-04-24T07:02:23;10.85;94.95
66337;SHT30;53139;45.576;5.304;2023-04-24T07:06:04;10.93;94.54
66337;SHT30;53139;45.576;5.304;2023-04-24T07:09:51;10.99;94.15
66337;SHT30;53139;45.576;5.304;2023-04-24T07:13:37;11.13;92.46
66337;SHT30;53139;45.576;5.304;2023-04-24T07:17:31;11.16;93.04
66337;SHT30;53139;45.576;5.304;2023-04-24T07:21:11;11.30;91.44
66337;SHT30;53139;45.576;5.304;2023-04-24T07:24:49;11.27;91.92
66337;SHT30;53139;45.576;5.304;2023-04-24T07:28:25;11.26;91.34
66337;SHT30;53139;45.576;5.304;2023-04-24T07:31:48;11.82;91.91
66337;SHT30;53139;45.576;5.304;2023-04-24T07:35:16;12.30;88.33
66337;SHT30;53139;45.576;5.304;2023-04-24T07:38:50;12.29;86.60
66337;SHT30;53139;45.576;5.304;2023-04-24T07:42:24;12.23;89.06
66337;SHT30;53139;45.576;5.304;2023-04-24T07:45:42;11.98;86.51
66337;SHT30;53139;45.576;5.304;2023-04-24T07:48:56;11.90;85.89
66337;SHT30;53139;45.576;5.304;2023-04-24T07:52:19;11.89;88.09
66337;SHT30;53139;45.576;5.304;2023-04-24T07:55:40;12.09;85.19
66337;SHT30;53139;45.576;5.304;2023-04-24T07:59:14;12.45;86.73
66337;SHT30;53139;45.576;5.304;2023-04-24T08:02:55;12.45;84.31
66337;SHT30;53139;45.576;5.304;2023-04-24T08:06:30;12.68;82.28
66337;SHT30;53139;45.576;5.304;2023-04-24T08:09:57;12.99;81.96
66337;SHT30;53139;45.576;5.304;2023-04-24T08:12:59;12.54;81.23
66337;SHT30;53139;45.576;5.304;2023-04-24T08:16:12;12.55;82.32
66337;SHT30;53139;45.576;5.304;2023-04-24T08:19:36;12.82;80.63
66337;SHT30;53139;45.576;5.304;2023-04-24T08:23:15;12.29;81.62
66337;SHT30;53139;45.576;5.304;2023-04-24T08:26:35;12.27;80.78
66337;SHT30;53139;45.576;5.304;2023-04-24T08:29:38;12.30;79.92
66337;SHT30;53139;45.576;5.304;2023-04-24T08:32:39;12.72;80.32
66337;SHT30;53139;45.576;5.304;2023-04-24T08:35:40;13.74;80.26
66337;SHT30;53139;45.576;5.304;2023-04-24T08:38:53;13.85;77.49
66337;SHT30;53139;45.576;5.304;2023-04-24T08:42:05;13.40;80.12
66337;SHT30;53139;45.576;5.304;2023-04-24T08:45:08;13.39;78.34
66337;SHT30;53139;45.576;5.304;2023-04-24T08:48:10;13.70;78.73
66337;SHT30;53139;45.576;5.304;2023-04-24T08:51:11;13.39;79.76
66337;SHT30;53139;45.576;5.304;2023-04-24T08:54:12;13.46;75.33
66337;SHT30;53139;45.576;5.304;2023-04-24T08:57:17;13.50;77.23
66337;SHT30;53139;45.576;5.304;2023-04-24T09:00:19;13.71;78.30
66337;SHT30;53139;45.576;5.304;2023-04-24T09:03:21;14.01;74.00
66337;SHT30;53139;45.576;5.304;2023-04-24T09:06:22;14.15;76.29
66337;SHT30;53139;45.576;5.304;2023-04-24T09:09:24;15.58;74.60
66337;SHT30;53139;45.576;5.304;2023-04-24T09:12:25;15.95;70.52
66337;SHT30;53139;45.576;5.304;2023-04-24T09:15:26;15.71;74.41
66337;SHT30;53139;45.576;5.304;2023-04-24T09:18:26;15.40;74.57
66337;SHT30;53139;45.576;5.304;2023-04-24T09:21:32;15.19;73.77
66337;SHT30;53139;45.576;5.304;2023-04-24T09:24:34;15.01;75.63
66337;SHT30;53139;45.576;5.304;2023-04-24T09:27:35;14.63;72.14
66337;SHT30;53139;45.576;5.304;2023-04-24T09:30:36;14.25;71.23
66337;SHT30;53139;45.576;5.304;2023-04-24T09:33:36;14.78;75.28
66337;SHT30;53139;45.576;5.304;2023-04-24T09:36:41;15.03;69.25
66337;SHT30;53139;45.576;5.304;2023-04-24T09:39:42;15.16;69.70
66337;SHT30;53139;45.576;5.304;2023-04-24T09:42:45;15.37;70.84
66337;SHT30;53139;45.576;5.304;2023-04-24T09:45:46;14.92;72.68
66337;SHT30;53139;45.576;5.304;2023-04-24T09:48:46;16.22;69.27
66337;SHT30;53139;45.576;5.304;2023-04-24T09:51:46;15.55;64.20
66337;SHT30;53139;45.576;5.304;2023-04-24T09:54:52;17.01;68.63
66337;SHT30;53139;45.576;5.304;2023-04-24T09:57:59;17.15;63.85
66337;SHT30;53139;45.576;5.304;2023-04-24T10:01:00;17.15;63.55
66337;SHT30;53139;45.576;5.304;2023-04-24T10:04:01;15.84;67.68
66337;SHT30;53139;45.576;5.304;2023-04-24T10:07:05;15.60;65.24
66337;SHT30;53139;45.576;5.304;2023-04-24T10:10:07;15.33;66.39
66337;SHT30;53139;45.576;5.304;2023-04-24T10:13:14;14.95;68.16
66337;SHT30;53139;45.576;5.304;2023-04-24T10:16:19;15.03;68.75
66337;SHT30;53139;45.576;5.304;2023-04-24T10:19:25;14.92;68.78
66337;SHT30;53139;45.576;5.304;2023-04-24T10:22:29;16.30;68.39
66337;SHT30;53139;45.576;5.304;2023-04-24T10:25:33;15.19;66.13
66337;SHT30;53139;45.576;5.304;2023-04-24T10:28:36;15.85;64.80
66337;SHT30;53139;45.576;5.304;2023-04-24T10:31:37;15.85;70.02
66337;SHT30;53139;45.576;5.304;2023-04-24T10:34:42;17.28;66.97
66337;SHT30;53139;45.576;5.304;2023-04-24T10:37:45;18.75;58.44
66337;SHT30;53139;45.576;5.304;2023-04-24T10:41:12;17.78;64.26
66337;SHT30;53139;45.576;5.304;2023-04-24T10:44:45;17.98;63.47
66337;SHT30;53139;45.576;5.304;2023-04-24T10:48:05;19.35;61.02
66337;SHT30;53139;45.576;5.304;2023-04-24T10:51:16;18.24;56.20
66337;SHT30;53139;45.576;5.304;2023-04-24T10:57:34;17.67;60.33
66337;SHT30;53139;45.576;5.304;2023-04-24T11:00:48;19.46;60.28
66337;SHT30;53139;45.576;5.304;2023-04-24T11:04:11;20.17;60.06
66337;SHT30;53139;45.576;5.304;2023-04-24T11:07:25;19.33;59.68
66337;SHT30;53139;45.576;5.304;2023-04-24T11:10:45;18.61;61.16
66337;SHT30;53139;45.576;5.304;2023-04-24T11:17:00;19.67;58.45
66337;SHT30;53139;45.576;5.304;2023-04-24T11:20:17;20.04;53.63
66337;SHT30;53139;45.576;5.304;2023-04-24T11:23:41;20.64;55.63
66337;SHT30;53139;45.576;5.304;2023-04-24T11:27:13;20.85;58.22
66337;SHT30;53139;45.576;5.304;2023-04-24T11:30:29;21.10;54.03
66337;SHT30;53139;45.576;5.304;2023-04-24T11:33:41;20.35;53.43
66337;SHT30;53139;45.576;5.304;2023-04-24T11:36:51;21.28;54.49
66337;SHT30;53139;45.576;5.304;2023-04-24T11:40:15;21.05;56.67
66337;SHT30;53139;45.576;5.304;2023-04-24T11:43:28;21.69;52.79
66337;SHT30;53139;45.576;5.304;2023-04-24T11:46:38;21.21;56.10
66337;SHT30;53139;45.576;5.304;2023-04-24T11:49:50;22.29;51.79
66337;SHT30;53139;45.576;5.304;2023-04-24T11:52:53;21.62;51.41
66337;SHT30;53139;45.576;5.304;2023-04-24T11:56:04;20.38;50.78
66337;SHT30;53139;45.576;5.304;2023-04-24T11:59:06;20.47;54.29
66337;SHT30;53139;45.576;5.304;2023-04-24T12:02:29;19.62;53.36
66337;SHT30;53139;45.576;5.304;2023-04-24T12:05:33;20.67;54.07
66337;SHT30;53139;45.576;5.304;2023-04-24T12:08:45;18.60;54.36
66337;SHT30;53139;45.576;5.304;2023-04-24T12:11:53;18.52;56.63
66337;SHT30;53139;45.576;5.304;2023-04-24T12:14:58;17.98;56.60
66337;SHT30;53139;45.576;5.304;2023-04-24T12:17:59;18.71;59.91
66337;SHT30;53139;45.576;5.304;2023-04-24T12:21:20;21.27;54.76
66337;SHT30;53139;45.576;5.304;2023-04-24T12:24:21;20.66;53.90
66337;SHT30;53139;45.576;5.304;2023-04-24T12:27:22;19.56;55.02
66337;SHT30;53139;45.576;5.304;2023-04-24T12:30:30;22.00;52.04
66337;SHT30;53139;45.576;5.304;2023-04-24T12:33:35;21.93;47.20
66337;SHT30;53139;45.576;5.304;2023-04-24T12:36:39;21.66;47.93
66337;SHT30;53139;45.576;5.304;2023-04-24T12:40:01;19.29;49.24
66337;SHT30;53139;45.576;5.304;2023-04-24T12:43:17;19.19;55.83
66337;SHT30;53139;45.576;5.304;2023-04-24T12:46:21;20.17;48.12
66337;SHT30;53139;45.576;5.304;2023-04-24T12:49:24;20.93;46.85
66337;SHT30;53139;45.576;5.304;2023-04-24T12:52:28;19.07;48.22
66337;SHT30;53139;45.576;5.304;2023-04-24T12:55:29;18.77;51.67
66337;SHT30;53139;45.576;5.304;2023-04-24T12:58:30;17.87;54.09
66337;SHT30;53139;45.576;5.304;2023-04-24T13:01:30;17.15;54.60
66337;SHT30;53139;45.576;5.304;2023-04-24T13:04:31;17.36;54.86
66337;SHT30;53139;45.576;5.304;2023-04-24T13:07:32;17.14;52.91
66337;SHT30;53139;45.576;5.304;2023-04-24T13:10:34;19.88;50.60
66337;SHT30;53139;45.576;5.304;2023-04-24T13:13:45;18.64;53.33
66337;SHT30;53139;45.576;5.304;2023-04-24T13:16:46;17.73;51.49
66337;SHT30;53139;45.576;5.304;2023-04-24T13:19:49;19.23;51.60
66337;SHT30;53139;45.576;5.304;2023-04-24T13:22:56;20.02;51.07
66337;SHT30;53139;45.576;5.304;2023-04-24T13:26:03;21.87;51.03
66337;SHT30;53139;45.576;5.304;2023-04-24T13:29:03;22.32;42.36
66337;SHT30;53139;45.576;5.304;2023-04-24T13:32:12;23.00;46.07
66337;SHT30;53139;45.576;5.304;2023-04-24T13:35:22;23.99;47.24
66337;SHT30;53139;45.576;5.304;2023-04-24T13:38:40;21.41;53.33
66337;SHT30;53139;45.576;5.304;2023-04-24T13:41:53;23.01;50.06
66337;SHT30;53139;45.576;5.304;2023-04-24T13:45:25;21.49;49.17
66337;SHT30;53139;45.576;5.304;2023-04-24T13:49:03;20.63;50.43
66337;SHT30;53139;45.576;5.304;2023-04-24T13:52:36;21.22;49.65
66337;SHT30;53139;45.576;5.304;2023-04-24T13:56:07;21.22;51.18
66337;SHT30;53139;45.576;5.304;2023-04-24T13:59:39;20.24;52.67
66337;SHT30;53139;45.576;5.304;2023-04-24T14:03:15;20.49;51.99
66337;SHT30;53139;45.576;5.304;2023-04-24T14:06:43;20.55;51.73
66337;SHT30;53139;45.576;5.304;2023-04-24T14:10:08;20.29;49.98
66337;SHT30;53139;45.576;5.304;2023-04-24T14:13:30;22.15;51.81
66337;SHT30;53139;45.576;5.304;2023-04-24T14:17:00;21.25;49.82
66337;SHT30;53139;45.576;5.304;2023-04-24T14:20:15;21.41;46.79
66337;SHT30;53139;45.576;5.304;2023-04-24T14:23:16;21.66;50.37
66337;SHT30;53139;45.576;5.304;2023-04-24T14:26:17;22.41;47.69
66337;SHT30;53139;45.576;5.304;2023-04-24T14:29:30;21.82;42.72
66337;SHT30;53139;45.576;5.304;2023-04-24T14:32:50;21.80;49.64
66337;SHT30;53139;45.576;5.304;2023-04-24T14:36:24;20.94;46.97
66337;SHT30;53139;45.576;5.304;2023-04-24T14:39:49;19.66;51.06
66337;SHT30;53139;45.576;5.304;2023-04-24T14:42:57;19.97;53.40
66337;SHT30;53139;45.576;5.304;2023-04-24T14:45:58;21.76;49.70
66337;SHT30;53139;45.576;5.304;2023-04-24T14:49:13;21.19;51.18
66337;SHT30;53139;45.576;5.304;2023-04-24T14:52:30;21.62;48.08
66337;SHT30;53139;45.576;5.304;2023-04-24T14:55:31;22.82;48.06
66337;SHT30;53139;45.576;5.304;2023-04-24T14:58:36;22.74;46.48
66337;SHT30;53139;45.576;5.304;2023-04-24T15:01:47;23.51;49.01
66337;SHT30;53139;45.576;5.304;2023-04-24T15:04:56;23.25;47.56
66337;SHT30;53139;45.576;5.304;2023-04-24T15:08:02;22.74;44.39
66337;SHT30;53139;45.576;5.304;2023-04-24T15:11:12;22.77;44.65
66337;SHT30;53139;45.576;5.304;2023-04-24T15:14:26;22.53;45.40
66337;SHT30;53139;45.576;5.304;2023-04-24T15:17:39;21.17;46.64
66337;SHT30;53139;45.576;5.304;2023-04-24T15:21:13;23.93;49.74
66337;SHT30;53139;45.576;5.304;2023-04-24T15:24:27;21.34;45.86
66337;SHT30;53139;45.576;5.304;2023-04-24T15:28:18;20.17;47.32
66337;SHT30;53139;45.576;5.304;2023-04-24T15:32:47;20.97;47.02
66337;SHT30;53139;45.576;5.304;2023-04-24T15:36:46;21.48;46.36
66337;SHT30;53139;45.576;5.304;2023-04-24T15:40:37;20.19;47.86
66337;SHT30;53139;45.576;5.304;2023-04-24T15:49:05;20.02;53.08
66337;SHT30;53139;45.576;5.304;2023-04-24T15:57:38;19.60;53.63
66337;SHT30;53139;45.576;5.304;2023-04-24T16:01:54;19.14;51.85
66337;SHT30;53139;45.576;5.304;2023-04-24T16:05:33;18.49;54.79
66337;SHT30;53139;45.576;5.304;2023-04-24T16:08:35;18.90;52.58
66337;SHT30;53139;45.576;5.304;2023-04-24T16:11:35;19.52;52.01
66337;SHT30;53139;45.576;5.304;2023-04-24T16:14:37;20.43;51.78
66337;SHT30;53139;45.576;5.304;2023-04-24T16:17:37;19.45;51.98
66337;SHT30;53139;45.576;5.304;2023-04-24T16:20:42;19.47;50.44
66337;SHT30;53139;45.576;5.304;2023-04-24T16:23:49;19.26;52.19
66337;SHT30;53139;45.576;5.304;2023-04-24T16:26:54;19.60;51.76
66337;SHT30;53139;45.576;5.304;2023-04-24T16:29:55;18.91;50.68
66337;SHT30;53139;45.576;5.304;2023-04-24T16:32:59;19.38;51.20
66337;SHT30;53139;45.576;5.304;2023-04-24T16:36:09;18.73;51.74
66337;SHT30;53139;45.576;5.304;2023-04-24T16:39:32;18.24;54.53
66337;SHT30;53139;45.576;5.304;2023-04-24T16:42:47;17.60;52.68
66337;SHT30;53139;45.576;5.304;2023-04-24T16:45:48;17.84;55.25
66337;SHT30;53139;45.576;5.304;2023-04-24T16:48:49;18.59;56.48
66337;SHT30;53139;45.576;5.304;2023-04-24T16:52:00;18.63;52.17
66337;SHT30;53139;45.576;5.304;2023-04-24T16:55:01;18.16;53.52
66337;SHT30;53139;45.576;5.304;2023-04-24T16:58:01;17.59;53.35
66337;SHT30;53139;45.576;5.304;2023-04-24T17:01:02;16.87;53.99
66337;SHT30;53139;45.576;5.304;2023-04-24T17:04:02;16.37;57.44
66337;SHT30;53139;45.576;5.304;2023-04-24T17:07:03;16.27;58.52
66337;SHT30;53139;45.576;5.304;2023-04-24T17:10:04;16.10;58.11
66337;SHT30;53139;45.576;5.304;2023-04-24T17:13:13;15.92;58.64
66337;SHT30;53139;45.576;5.304;2023-04-24T17:16:14;15.92;57.64
66337;SHT30;53139;45.576;5.304;2023-04-24T17:19:33;15.85;59.42
66337;SHT30;53139;45.576;5.304;2023-04-24T17:22:52;16.78;56.37
66337;SHT30;53139;45.576;5.304;2023-04-24T17:25:52;16.81;56.82
66337;SHT30;53139;45.576;5.304;2023-04-24T17:28:53;16.46;57.75
66337;SHT30;53139;45.576;5.304;2023-04-24T17:31:54;16.33;56.75
66337;SHT30;53139;45.576;5.304;2023-04-24T17:35:02;16.43;56.66
66337;SHT30;53139;45.576;5.304;2023-04-24T17:38:10;15.92;57.14
66337;SHT30;53139;45.576;5.304;2023-04-24T17:41:13;15.57;60.30
66337;SHT30;53139;45.576;5.304;2023-04-24T17:44:18;15.54;59.61
66337;SHT30;53139;45.576;5.304;2023-04-24T17:47:27;15.10;63.32
66337;SHT30;53139;45.576;5.304;2023-04-24T17:50:50;14.80;61.64
66337;SHT30;53139;45.576;5.304;2023-04-24T17:54:10;14.74;64.32
66337;SHT30;53139;45.576;5.304;2023-04-24T17:58:00;14.46;62.87
66337;SHT30;53139;45.576;5.304;2023-04-24T18:02:24;14.50;62.88
66337;SHT30;53139;45.576;5.304;2023-04-24T18:56:58;12.54;71.34
66337;SHT30;53139;45.576;5.304;2023-04-24T19:00:41;12.23;72.23
66337;SHT30;53139;45.576;5.304;2023-04-24T19:04:20;12.23;72.96
66337;SHT30;53139;45.576;5.304;2023-04-24T19:08:13;12.03;73.87
66337;SHT30;53139;45.576;5.304;2023-04-24T19:12:04;12.34;71.89
66337;SHT30;53139;45.576;5.304;2023-04-24T19:15:28;12.48;71.49
66337;SHT30;53139;45.576;5.304;2023-04-24T19:18:57;12.32;75.24
66337;SHT30;53139;45.576;5.304;2023-04-24T19:22:01;12.16;77.51
66337;SHT30;53139;45.576;5.304;2023-04-24T19:25:19;11.96;78.51
66337;SHT30;53139;45.576;5.304;2023-04-24T19:28:38;11.79;78.59
66337;SHT30;53139;45.576;5.304;2023-04-24T19:31:42;11.60;78.92
66337;SHT30;53139;45.576;5.304;2023-04-24T19:34:49;11.65;77.32
66337;SHT30;53139;45.576;5.304;2023-04-24T19:37:56;11.74;75.70
66337;SHT30;53139;45.576;5.304;2023-04-24T19:41:01;11.81;76.18
66337;SHT30;53139;45.576;5.304;2023-04-24T19:44:14;11.75;77.42
66337;SHT30;53139;45.576;5.304;2023-04-24T19:47:32;11.40;80.94
66337;SHT30;53139;45.576;5.304;2023-04-24T19:50:46;11.06;79.79
66337;SHT30;53139;45.576;5.304;2023-04-24T19:53:52;10.88;80.60
66337;SHT30;53139;45.576;5.304;2023-04-24T19:56:53;11.06;80.43
66337;SHT30;53139;45.576;5.304;2023-04-24T19:59:54;11.13;80.31
66337;SHT30;53139;45.576;5.304;2023-04-24T20:02:55;11.17;79.38
66337;SHT30;53139;45.576;5.304;2023-04-24T20:05:56;10.82;80.33
66337;SHT30;53139;45.576;5.304;2023-04-24T20:08:57;11.00;81.33
66337;SHT30;53139;45.576;5.304;2023-04-24T20:11:58;10.79;81.14
66337;SHT30;53139;45.576;5.304;2023-04-24T20:15:03;10.40;82.12
66337;SHT30;53139;45.576;5.304;2023-04-24T20:18:04;10.71;80.26
66337;SHT30;53139;45.576;5.304;2023-04-24T20:21:04;10.44;81.84
66337;SHT30;53139;45.576;5.304;2023-04-24T20:24:05;10.71;79.90
66337;SHT30;53139;45.576;5.304;2023-04-24T20:27:07;10.68;80.84
66337;SHT30;53139;45.576;5.304;2023-04-24T20:30:09;10.65;80.07
66337;SHT30;53139;45.576;5.304;2023-04-24T20:33:12;10.50;83.99
66337;SHT30;53139;45.576;5.304;2023-04-24T20:36:12;10.47;83.12
66337;SHT30;53139;45.576;5.304;2023-04-24T20:39:13;10.64;82.89
66337;SHT30;53139;45.576;5.304;2023-04-24T20:42:13;10.38;83.89
66337;SHT30;53139;45.576;5.304;2023-04-24T20:45:15;10.44;83.51
66337;SHT30;53139;45.576;5.304;2023-04-24T20:48:17;10.58;82.52
66337;SHT30;53139;45.576;5.304;2023-04-24T20:51:17;10.69;81.32
66337;SHT30;53139;45.576;5.304;2023-04-24T20:54:18;10.88;80.42
66337;SHT30;53139;45.576;5.304;2023-04-24T20:57:19;10.79;81.30
66337;SHT30;53139;45.576;5.304;2023-04-24T21:00:19;10.72;82.23
66337;SHT30;53139;45.576;5.304;2023-04-24T21:03:20;10.71;82.10
66337;SHT30;53139;45.576;5.304;2023-04-24T21:06:20;10.68;81.93
66337;SHT30;53139;45.576;5.304;2023-04-24T21:09:21;10.60;81.89
66337;SHT30;53139;45.576;5.304;2023-04-24T21:12:21;10.60;81.82
66337;SHT30;53139;45.576;5.304;2023-04-24T21:15:22;10.60;81.67
66337;SHT30;53139;45.576;5.304;2023-04-24T21:18:23;10.62;81.25
66337;SHT30;53139;45.576;5.304;2023-04-24T21:21:24;10.60;81.15
66337;SHT30;53139;45.576;5.304;2023-04-24T21:24:24;10.50;81.74
66337;SHT30;53139;45.576;5.304;2023-04-24T21:27:25;10.47;82.12
66337;SHT30;53139;45.576;5.304;2023-04-24T21:30:25;10.40;82.84
66337;SHT30;53139;45.576;5.304;2023-04-24T21:33:26;10.50;82.21
66337;SHT30;53139;45.576;5.304;2023-04-24T21:36:27;10.51;81.99
66337;SHT30;53139;45.576;5.304;2023-04-24T21:39:27;10.47;81.83
66337;SHT30;53139;45.576;5.304;2023-04-24T21:42:28;10.52;81.62
66337;SHT30;53139;45.576;5.304;2023-04-24T21:45:28;10.47;81.92
66337;SHT30;53139;45.576;5.304;2023-04-24T21:48:29;10.34;82.43